sensor_id;sensor_type;location;lat;lon;timestamp;P1;durP1;ratioP1;P2;durP2;ratioP2
65328;SDS011;51941;52.210;5.158;2023-07-30T00:02:14;12.75;;;1.98;;
65328;SDS011;51941;52.210;5.158;2023-07-30T00:04:41;6.78;;;2.13;;
65328;SDS011;51941;52.210;5.158;2023-07-30T00:07:08;7.80;;;2.05;;
65328;SDS011;51941;52.210;5.158;2023-07-30T00:09:35;10.00;;;2.13;;
65328;SDS011;51941;52.210;5.158;2023-07-30T00:12:04;9.40;;;1.88;;
65328;SDS011;51941;52.210;5.158;2023-07-30T00:14:31;7.68;;;1.50;;
65328;SDS011;51941;52.210;5.158;2023-07-30T00:16:58;8.20;;;1.70;;
65328;SDS011;51941;52.210;5.158;2023-07-30T00:19:25;5.72;;;1.50;;
65328;SDS011;51941;52.210;5.158;2023-07-30T00:21:52;12.32;;;2.13;;
65328;SDS011;51941;52.210;5.158;2023-07-30T00:24:19;7.88;;;1.60;;
65328;SDS011;51941;52.210;5.158;2023-07-30T00:26:46;9.07;;;1.83;;
65328;SDS011;51941;52.210;5.158;2023-07-30T00:29:14;8.43;;;2.05;;
65328;SDS011;51941;52.210;5.158;2023-07-30T00:31:41;7.93;;;1.55;;
65328;SDS011;51941;52.210;5.158;2023-07-30T00:34:08;6.78;;;1.85;;
65328;SDS011;51941;52.210;5.158;2023-07-30T00:36:35;7.65;;;1.67;;
65328;SDS011;51941;52.210;5.158;2023-07-30T00:39:02;8.98;;;2.05;;
65328;SDS011;51941;52.210;5.158;2023-07-30T00:41:29;5.70;;;1.60;;
65328;SDS011;51941;52.210;5.158;2023-07-30T00:43:57;6.93;;;1.60;;
65328;SDS011;51941;52.210;5.158;2023-07-30T00:46:25;7.50;;;1.65;;
65328;SDS011;51941;52.210;5.158;2023-07-30T00:48:52;5.43;;;1.55;;
65328;SDS011;51941;52.210;5.158;2023-07-30T00:51:19;6.47;;;1.55;;
65328;SDS011;51941;52.210;5.158;2023-07-30T00:53:46;5.57;;;1.70;;
65328;SDS011;51941;52.210;5.158;2023-07-30T00:56:13;7.05;;;1.50;;
65328;SDS011;51941;52.210;5.158;2023-07-30T00:58:41;4.72;;;1.35;;
65328;SDS011;51941;52.210;5.158;2023-07-30T01:01:10;7.93;;;1.38;;
65328;SDS011;51941;52.210;5.158;2023-07-30T01:03:39;6.82;;;1.85;;
65328;SDS011;51941;52.210;5.158;2023-07-30T01:06:06;7.72;;;2.10;;
65328;SDS011;51941;52.210;5.158;2023-07-30T01:08:33;4.97;;;1.40;;
65328;SDS011;51941;52.210;5.158;2023-07-30T01:11:01;7.15;;;1.70;;
65328;SDS011;51941;52.210;5.158;2023-07-30T01:13:29;8.15;;;1.70;;
65328;SDS011;51941;52.210;5.158;2023-07-30T01:15:56;6.82;;;2.10;;
65328;SDS011;51941;52.210;5.158;2023-07-30T01:18:23;5.80;;;1.70;;
65328;SDS011;51941;52.210;5.158;2023-07-30T01:20:54;7.10;;;1.60;;
65328;SDS011;51941;52.210;5.158;2023-07-30T01:23:23;9.88;;;2.10;;
65328;SDS011;51941;52.210;5.158;2023-07-30T01:25:51;7.13;;;1.70;;
65328;SDS011;51941;52.210;5.158;2023-07-30T01:28:25;7.55;;;1.75;;
65328;SDS011;51941;52.210;5.158;2023-07-30T01:30:53;8.05;;;1.73;;
65328;SDS011;51941;52.210;5.158;2023-07-30T01:33:24;7.10;;;1.42;;
65328;SDS011;51941;52.210;5.158;2023-07-30T01:35:51;12.30;;;2.33;;
65328;SDS011;51941;52.210;5.158;2023-07-30T01:38:22;10.00;;;1.85;;
65328;SDS011;51941;52.210;5.158;2023-07-30T01:40:49;7.35;;;1.92;;
65328;SDS011;51941;52.210;5.158;2023-07-30T01:43:16;8.65;;;2.20;;
65328;SDS011;51941;52.210;5.158;2023-07-30T01:45:43;13.77;;;1.77;;
65328;SDS011;51941;52.210;5.158;2023-07-30T01:48:10;8.35;;;1.83;;
65328;SDS011;51941;52.210;5.158;2023-07-30T01:50:38;15.75;;;2.60;;
65328;SDS011;51941;52.210;5.158;2023-07-30T01:53:07;7.80;;;1.80;;
65328;SDS011;51941;52.210;5.158;2023-07-30T01:55:34;7.60;;;2.00;;
65328;SDS011;51941;52.210;5.158;2023-07-30T01:58:01;8.57;;;1.80;;
65328;SDS011;51941;52.210;5.158;2023-07-30T02:00:28;8.43;;;2.03;;
65328;SDS011;51941;52.210;5.158;2023-07-30T02:03:02;7.88;;;1.88;;
65328;SDS011;51941;52.210;5.158;2023-07-30T02:05:29;11.93;;;2.15;;
65328;SDS011;51941;52.210;5.158;2023-07-30T02:07:57;10.77;;;2.13;;
65328;SDS011;51941;52.210;5.158;2023-07-30T02:10:25;7.30;;;1.83;;
65328;SDS011;51941;52.210;5.158;2023-07-30T02:12:53;6.17;;;1.83;;
65328;SDS011;51941;52.210;5.158;2023-07-30T02:15:19;7.72;;;2.20;;
65328;SDS011;51941;52.210;5.158;2023-07-30T02:17:46;12.43;;;2.60;;
65328;SDS011;51941;52.210;5.158;2023-07-30T02:20:13;8.77;;;2.30;;
65328;SDS011;51941;52.210;5.158;2023-07-30T02:22:40;13.18;;;2.10;;
65328;SDS011;51941;52.210;5.158;2023-07-30T02:25:07;7.75;;;2.17;;
65328;SDS011;51941;52.210;5.158;2023-07-30T02:27:35;5.88;;;1.60;;
65328;SDS011;51941;52.210;5.158;2023-07-30T02:30:02;11.13;;;2.25;;
65328;SDS011;51941;52.210;5.158;2023-07-30T02:32:29;7.63;;;2.30;;
65328;SDS011;51941;52.210;5.158;2023-07-30T02:34:56;10.73;;;2.10;;
65328;SDS011;51941;52.210;5.158;2023-07-30T02:37:23;10.73;;;2.35;;
65328;SDS011;51941;52.210;5.158;2023-07-30T02:39:49;14.15;;;3.05;;
65328;SDS011;51941;52.210;5.158;2023-07-30T02:42:16;11.13;;;2.22;;
65328;SDS011;51941;52.210;5.158;2023-07-30T02:44:44;7.45;;;2.15;;
65328;SDS011;51941;52.210;5.158;2023-07-30T02:47:11;8.27;;;2.20;;
65328;SDS011;51941;52.210;5.158;2023-07-30T02:49:38;11.00;;;2.25;;
65328;SDS011;51941;52.210;5.158;2023-07-30T02:52:05;13.15;;;2.50;;
65328;SDS011;51941;52.210;5.158;2023-07-30T02:54:32;7.75;;;2.25;;
65328;SDS011;51941;52.210;5.158;2023-07-30T02:56:59;8.35;;;1.60;;
65328;SDS011;51941;52.210;5.158;2023-07-30T02:59:25;7.72;;;2.15;;
65328;SDS011;51941;52.210;5.158;2023-07-30T03:01:55;13.23;;;2.55;;
65328;SDS011;51941;52.210;5.158;2023-07-30T03:04:22;9.80;;;2.08;;
65328;SDS011;51941;52.210;5.158;2023-07-30T03:06:49;11.57;;;2.08;;
65328;SDS011;51941;52.210;5.158;2023-07-30T03:09:15;9.75;;;2.38;;
65328;SDS011;51941;52.210;5.158;2023-07-30T03:11:42;12.63;;;2.35;;
65328;SDS011;51941;52.210;5.158;2023-07-30T03:14:09;13.40;;;2.22;;
65328;SDS011;51941;52.210;5.158;2023-07-30T03:16:36;10.85;;;2.58;;
65328;SDS011;51941;52.210;5.158;2023-07-30T03:19:04;12.45;;;2.47;;
65328;SDS011;51941;52.210;5.158;2023-07-30T03:21:31;13.95;;;2.42;;
65328;SDS011;51941;52.210;5.158;2023-07-30T03:23:57;12.20;;;2.25;;
65328;SDS011;51941;52.210;5.158;2023-07-30T03:26:24;11.18;;;2.92;;
65328;SDS011;51941;52.210;5.158;2023-07-30T03:28:51;14.65;;;2.67;;
65328;SDS011;51941;52.210;5.158;2023-07-30T03:31:18;13.07;;;2.75;;
65328;SDS011;51941;52.210;5.158;2023-07-30T03:33:44;17.33;;;2.58;;
65328;SDS011;51941;52.210;5.158;2023-07-30T03:36:13;13.18;;;2.40;;
65328;SDS011;51941;52.210;5.158;2023-07-30T03:38:40;17.13;;;2.90;;
65328;SDS011;51941;52.210;5.158;2023-07-30T03:41:07;12.25;;;2.47;;
65328;SDS011;51941;52.210;5.158;2023-07-30T03:43:34;11.75;;;2.53;;
65328;SDS011;51941;52.210;5.158;2023-07-30T03:46:01;16.02;;;3.38;;
65328;SDS011;51941;52.210;5.158;2023-07-30T03:48:28;13.90;;;2.88;;
65328;SDS011;51941;52.210;5.158;2023-07-30T03:50:55;14.10;;;3.13;;
65328;SDS011;51941;52.210;5.158;2023-07-30T03:53:24;13.57;;;2.78;;
65328;SDS011;51941;52.210;5.158;2023-07-30T03:55:53;12.35;;;2.63;;
65328;SDS011;51941;52.210;5.158;2023-07-30T03:58:20;17.20;;;3.65;;
65328;SDS011;51941;52.210;5.158;2023-07-30T04:00:47;19.17;;;3.08;;
65328;SDS011;51941;52.210;5.158;2023-07-30T04:03:13;17.45;;;2.65;;
65328;SDS011;51941;52.210;5.158;2023-07-30T04:05:40;17.40;;;3.28;;
65328;SDS011;51941;52.210;5.158;2023-07-30T04:08:07;18.30;;;3.33;;
65328;SDS011;51941;52.210;5.158;2023-07-30T04:10:36;16.50;;;3.15;;
65328;SDS011;51941;52.210;5.158;2023-07-30T04:13:02;13.65;;;3.00;;
65328;SDS011;51941;52.210;5.158;2023-07-30T04:15:29;14.15;;;3.08;;
65328;SDS011;51941;52.210;5.158;2023-07-30T04:17:57;18.25;;;2.72;;
65328;SDS011;51941;52.210;5.158;2023-07-30T04:20:23;11.32;;;2.97;;
65328;SDS011;51941;52.210;5.158;2023-07-30T04:22:50;15.27;;;3.42;;
65328;SDS011;51941;52.210;5.158;2023-07-30T04:25:17;21.30;;;3.35;;
65328;SDS011;51941;52.210;5.158;2023-07-30T04:27:45;17.75;;;3.00;;
65328;SDS011;51941;52.210;5.158;2023-07-30T04:30:12;14.25;;;3.13;;
65328;SDS011;51941;52.210;5.158;2023-07-30T04:32:39;16.67;;;3.65;;
65328;SDS011;51941;52.210;5.158;2023-07-30T04:35:06;16.77;;;3.60;;
65328;SDS011;51941;52.210;5.158;2023-07-30T04:37:33;15.60;;;3.17;;
65328;SDS011;51941;52.210;5.158;2023-07-30T04:40:00;17.13;;;3.90;;
65328;SDS011;51941;52.210;5.158;2023-07-30T04:42:30;15.35;;;3.25;;
65328;SDS011;51941;52.210;5.158;2023-07-30T04:44:58;22.42;;;4.20;;
65328;SDS011;51941;52.210;5.158;2023-07-30T04:47:25;21.08;;;3.88;;
65328;SDS011;51941;52.210;5.158;2023-07-30T04:49:51;17.13;;;3.50;;
65328;SDS011;51941;52.210;5.158;2023-07-30T04:52:18;15.00;;;3.22;;
65328;SDS011;51941;52.210;5.158;2023-07-30T04:54:45;17.08;;;3.40;;
65328;SDS011;51941;52.210;5.158;2023-07-30T04:57:12;16.02;;;3.38;;
65328;SDS011;51941;52.210;5.158;2023-07-30T04:59:39;15.02;;;3.72;;
65328;SDS011;51941;52.210;5.158;2023-07-30T05:02:07;19.02;;;3.67;;
65328;SDS011;51941;52.210;5.158;2023-07-30T05:04:33;18.00;;;3.58;;
65328;SDS011;51941;52.210;5.158;2023-07-30T05:07:00;20.70;;;3.13;;
65328;SDS011;51941;52.210;5.158;2023-07-30T05:09:27;12.85;;;3.13;;
65328;SDS011;51941;52.210;5.158;2023-07-30T05:11:54;20.42;;;3.30;;
65328;SDS011;51941;52.210;5.158;2023-07-30T05:14:21;17.25;;;3.60;;
65328;SDS011;51941;52.210;5.158;2023-07-30T05:16:47;20.20;;;4.60;;
65328;SDS011;51941;52.210;5.158;2023-07-30T05:19:16;16.15;;;3.60;;
65328;SDS011;51941;52.210;5.158;2023-07-30T05:21:43;17.38;;;3.25;;
65328;SDS011;51941;52.210;5.158;2023-07-30T05:24:09;20.35;;;4.15;;
65328;SDS011;51941;52.210;5.158;2023-07-30T05:26:36;15.77;;;3.88;;
65328;SDS011;51941;52.210;5.158;2023-07-30T05:29:03;17.80;;;3.33;;
65328;SDS011;51941;52.210;5.158;2023-07-30T05:31:30;19.98;;;4.13;;
65328;SDS011;51941;52.210;5.158;2023-07-30T05:33:56;22.40;;;3.90;;
65328;SDS011;51941;52.210;5.158;2023-07-30T05:36:25;17.35;;;3.83;;
65328;SDS011;51941;52.210;5.158;2023-07-30T05:38:51;15.80;;;3.63;;
65328;SDS011;51941;52.210;5.158;2023-07-30T05:41:18;22.35;;;3.80;;
65328;SDS011;51941;52.210;5.158;2023-07-30T05:43:46;18.30;;;3.65;;
65328;SDS011;51941;52.210;5.158;2023-07-30T05:46:13;16.08;;;3.17;;
65328;SDS011;51941;52.210;5.158;2023-07-30T05:48:39;20.08;;;4.25;;
65328;SDS011;51941;52.210;5.158;2023-07-30T05:51:06;19.45;;;3.65;;
65328;SDS011;51941;52.210;5.158;2023-07-30T05:53:34;17.00;;;3.80;;
65328;SDS011;51941;52.210;5.158;2023-07-30T05:56:01;23.33;;;3.88;;
65328;SDS011;51941;52.210;5.158;2023-07-30T05:58:28;17.60;;;3.67;;
65328;SDS011;51941;52.210;5.158;2023-07-30T06:00:54;17.60;;;3.40;;
65328;SDS011;51941;52.210;5.158;2023-07-30T06:03:22;18.50;;;4.25;;
65328;SDS011;51941;52.210;5.158;2023-07-30T06:05:49;19.15;;;3.97;;
65328;SDS011;51941;52.210;5.158;2023-07-30T06:08:15;18.85;;;3.88;;
65328;SDS011;51941;52.210;5.158;2023-07-30T06:10:44;15.77;;;3.60;;
65328;SDS011;51941;52.210;5.158;2023-07-30T06:15:38;14.23;;;3.35;;
65328;SDS011;51941;52.210;5.158;2023-07-30T06:18:05;16.98;;;3.58;;
65328;SDS011;51941;52.210;5.158;2023-07-30T06:20:32;15.48;;;3.65;;
65328;SDS011;51941;52.210;5.158;2023-07-30T06:22:59;12.57;;;3.40;;
65328;SDS011;51941;52.210;5.158;2023-07-30T06:25:25;17.67;;;3.40;;
65328;SDS011;51941;52.210;5.158;2023-07-30T06:27:54;19.00;;;3.45;;
65328;SDS011;51941;52.210;5.158;2023-07-30T06:30:22;20.63;;;4.45;;
65328;SDS011;51941;52.210;5.158;2023-07-30T06:32:49;19.50;;;4.28;;
65328;SDS011;51941;52.210;5.158;2023-07-30T06:35:16;19.60;;;3.22;;
65328;SDS011;51941;52.210;5.158;2023-07-30T06:37:43;24.95;;;4.50;;
65328;SDS011;51941;52.210;5.158;2023-07-30T06:40:10;22.88;;;4.28;;
65328;SDS011;51941;52.210;5.158;2023-07-30T06:42:36;14.65;;;2.85;;
65328;SDS011;51941;52.210;5.158;2023-07-30T06:45:06;17.20;;;2.92;;
65328;SDS011;51941;52.210;5.158;2023-07-30T06:47:33;18.15;;;3.33;;
65328;SDS011;51941;52.210;5.158;2023-07-30T06:50:00;13.30;;;2.90;;
65328;SDS011;51941;52.210;5.158;2023-07-30T06:52:28;11.57;;;2.72;;
65328;SDS011;51941;52.210;5.158;2023-07-30T06:54:54;14.10;;;3.05;;
65328;SDS011;51941;52.210;5.158;2023-07-30T06:57:21;16.10;;;2.72;;
65328;SDS011;51941;52.210;5.158;2023-07-30T06:59:48;14.35;;;2.90;;
65328;SDS011;51941;52.210;5.158;2023-07-30T07:02:19;16.05;;;3.25;;
65328;SDS011;51941;52.210;5.158;2023-07-30T07:04:45;20.65;;;3.30;;
65328;SDS011;51941;52.210;5.158;2023-07-30T07:07:12;13.88;;;2.88;;
65328;SDS011;51941;52.210;5.158;2023-07-30T07:09:39;18.27;;;3.40;;
65328;SDS011;51941;52.210;5.158;2023-07-30T07:12:06;11.65;;;3.08;;
65328;SDS011;51941;52.210;5.158;2023-07-30T07:14:34;12.52;;;2.50;;
65328;SDS011;51941;52.210;5.158;2023-07-30T07:17:00;12.57;;;2.58;;
65328;SDS011;51941;52.210;5.158;2023-07-30T07:19:28;15.60;;;3.13;;
65328;SDS011;51941;52.210;5.158;2023-07-30T07:21:56;11.95;;;2.40;;
65328;SDS011;51941;52.210;5.158;2023-07-30T07:24:23;13.85;;;2.53;;
65328;SDS011;51941;52.210;5.158;2023-07-30T07:26:49;14.07;;;2.90;;
65328;SDS011;51941;52.210;5.158;2023-07-30T07:29:16;15.45;;;3.17;;
65328;SDS011;51941;52.210;5.158;2023-07-30T07:31:43;13.52;;;2.85;;
65328;SDS011;51941;52.210;5.158;2023-07-30T07:34:11;13.13;;;2.70;;
65328;SDS011;51941;52.210;5.158;2023-07-30T07:36:39;16.65;;;2.90;;
65328;SDS011;51941;52.210;5.158;2023-07-30T07:39:06;20.80;;;2.67;;
65328;SDS011;51941;52.210;5.158;2023-07-30T07:41:33;13.02;;;2.38;;
65328;SDS011;51941;52.210;5.158;2023-07-30T07:43:59;14.70;;;2.22;;
65328;SDS011;51941;52.210;5.158;2023-07-30T07:46:26;9.07;;;2.13;;
65328;SDS011;51941;52.210;5.158;2023-07-30T07:48:54;14.15;;;2.55;;
65328;SDS011;51941;52.210;5.158;2023-07-30T07:51:21;11.95;;;2.65;;
65328;SDS011;51941;52.210;5.158;2023-07-30T07:53:49;15.95;;;2.50;;
65328;SDS011;51941;52.210;5.158;2023-07-30T07:56:15;12.18;;;2.10;;
65328;SDS011;51941;52.210;5.158;2023-07-30T07:58:42;10.65;;;2.63;;
65328;SDS011;51941;52.210;5.158;2023-07-30T08:01:09;11.90;;;2.35;;
65328;SDS011;51941;52.210;5.158;2023-07-30T08:03:36;13.20;;;2.38;;
65328;SDS011;51941;52.210;5.158;2023-07-30T08:06:02;12.50;;;2.72;;
65328;SDS011;51941;52.210;5.158;2023-07-30T08:08:29;17.00;;;2.92;;
65328;SDS011;51941;52.210;5.158;2023-07-30T08:10:57;15.80;;;2.78;;
65328;SDS011;51941;52.210;5.158;2023-07-30T08:13:24;20.80;;;3.50;;
65328;SDS011;51941;52.210;5.158;2023-07-30T08:15:51;14.82;;;2.97;;
65328;SDS011;51941;52.210;5.158;2023-07-30T08:18:17;14.32;;;2.88;;
65328;SDS011;51941;52.210;5.158;2023-07-30T08:20:44;11.90;;;2.60;;
65328;SDS011;51941;52.210;5.158;2023-07-30T08:23:11;13.27;;;2.95;;
65328;SDS011;51941;52.210;5.158;2023-07-30T08:25:38;9.43;;;2.42;;
65328;SDS011;51941;52.210;5.158;2023-07-30T08:28:06;12.85;;;2.45;;
65328;SDS011;51941;52.210;5.158;2023-07-30T08:30:33;7.93;;;2.03;;
65328;SDS011;51941;52.210;5.158;2023-07-30T08:32:59;8.45;;;1.92;;
65328;SDS011;51941;52.210;5.158;2023-07-30T08:35:26;10.75;;;1.95;;
65328;SDS011;51941;52.210;5.158;2023-07-30T08:37:53;12.30;;;2.20;;
65328;SDS011;51941;52.210;5.158;2023-07-30T08:40:20;10.93;;;2.13;;
65328;SDS011;51941;52.210;5.158;2023-07-30T08:42:48;11.07;;;2.57;;
65328;SDS011;51941;52.210;5.158;2023-07-30T08:45:17;15.48;;;2.53;;
65328;SDS011;51941;52.210;5.158;2023-07-30T08:47:44;11.95;;;2.13;;
65328;SDS011;51941;52.210;5.158;2023-07-30T08:50:13;10.52;;;1.80;;
65328;SDS011;51941;52.210;5.158;2023-07-30T08:52:40;9.13;;;2.15;;
65328;SDS011;51941;52.210;5.158;2023-07-30T08:55:08;10.07;;;2.03;;
65328;SDS011;51941;52.210;5.158;2023-07-30T08:57:36;11.00;;;2.35;;
65328;SDS011;51941;52.210;5.158;2023-07-30T09:00:05;15.82;;;2.30;;
65328;SDS011;51941;52.210;5.158;2023-07-30T09:02:37;14.98;;;2.05;;
65328;SDS011;51941;52.210;5.158;2023-07-30T09:05:05;11.05;;;1.98;;
65328;SDS011;51941;52.210;5.158;2023-07-30T09:07:33;12.35;;;1.83;;
65328;SDS011;51941;52.210;5.158;2023-07-30T09:09:59;8.32;;;1.75;;
65328;SDS011;51941;52.210;5.158;2023-07-30T09:12:28;9.18;;;1.73;;
65328;SDS011;51941;52.210;5.158;2023-07-30T09:14:55;9.88;;;2.13;;
65328;SDS011;51941;52.210;5.158;2023-07-30T09:17:22;8.45;;;1.40;;
65328;SDS011;51941;52.210;5.158;2023-07-30T09:19:51;10.00;;;1.50;;
65328;SDS011;51941;52.210;5.158;2023-07-30T09:22:22;10.20;;;2.08;;
65328;SDS011;51941;52.210;5.158;2023-07-30T09:24:51;8.52;;;1.85;;
65328;SDS011;51941;52.210;5.158;2023-07-30T09:27:19;5.10;;;1.20;;
65328;SDS011;51941;52.210;5.158;2023-07-30T09:29:50;13.02;;;3.90;;
65328;SDS011;51941;52.210;5.158;2023-07-30T09:32:19;5.40;;;1.27;;
65328;SDS011;51941;52.210;5.158;2023-07-30T09:34:45;6.80;;;1.23;;
65328;SDS011;51941;52.210;5.158;2023-07-30T09:37:14;7.88;;;1.50;;
65328;SDS011;51941;52.210;5.158;2023-07-30T09:39:41;10.20;;;1.80;;
65328;SDS011;51941;52.210;5.158;2023-07-30T09:42:09;9.52;;;1.92;;
65328;SDS011;51941;52.210;5.158;2023-07-30T09:44:37;11.05;;;1.80;;
65328;SDS011;51941;52.210;5.158;2023-07-30T09:47:04;8.40;;;1.92;;
65328;SDS011;51941;52.210;5.158;2023-07-30T09:49:35;6.97;;;1.42;;
65328;SDS011;51941;52.210;5.158;2023-07-30T09:52:02;7.53;;;1.40;;
65328;SDS011;51941;52.210;5.158;2023-07-30T09:54:31;16.05;;;2.05;;
65328;SDS011;51941;52.210;5.158;2023-07-30T09:56:59;8.10;;;1.60;;
65328;SDS011;51941;52.210;5.158;2023-07-30T09:59:25;8.90;;;1.35;;
65328;SDS011;51941;52.210;5.158;2023-07-30T10:01:52;7.13;;;1.48;;
65328;SDS011;51941;52.210;5.158;2023-07-30T10:04:21;9.52;;;1.75;;
65328;SDS011;51941;52.210;5.158;2023-07-30T10:06:49;7.03;;;1.30;;
65328;SDS011;51941;52.210;5.158;2023-07-30T10:09:19;9.05;;;1.55;;
65328;SDS011;51941;52.210;5.158;2023-07-30T10:11:50;7.50;;;1.60;;
65328;SDS011;51941;52.210;5.158;2023-07-30T10:14:19;9.88;;;1.55;;
65328;SDS011;51941;52.210;5.158;2023-07-30T10:16:52;6.88;;;1.00;;
65328;SDS011;51941;52.210;5.158;2023-07-30T10:19:25;9.60;;;1.60;;
65328;SDS011;51941;52.210;5.158;2023-07-30T10:21:53;5.82;;;1.33;;
65328;SDS011;51941;52.210;5.158;2023-07-30T10:24:25;6.55;;;1.25;;
65328;SDS011;51941;52.210;5.158;2023-07-30T10:26:53;7.35;;;1.40;;
65328;SDS011;51941;52.210;5.158;2023-07-30T10:29:23;6.10;;;1.20;;
65328;SDS011;51941;52.210;5.158;2023-07-30T10:31:52;6.75;;;1.65;;
65328;SDS011;51941;52.210;5.158;2023-07-30T10:34:20;6.30;;;1.08;;
65328;SDS011;51941;52.210;5.158;2023-07-30T10:36:47;6.13;;;1.52;;
65328;SDS011;51941;52.210;5.158;2023-07-30T10:39:16;10.45;;;1.42;;
65328;SDS011;51941;52.210;5.158;2023-07-30T10:41:44;7.10;;;1.25;;
65328;SDS011;51941;52.210;5.158;2023-07-30T10:44:25;6.13;;;1.40;;
65328;SDS011;51941;52.210;5.158;2023-07-30T10:46:53;8.52;;;1.58;;
65328;SDS011;51941;52.210;5.158;2023-07-30T10:49:20;4.20;;;0.95;;
65328;SDS011;51941;52.210;5.158;2023-07-30T10:51:47;5.50;;;1.40;;
65328;SDS011;51941;52.210;5.158;2023-07-30T10:54:14;7.93;;;1.58;;
65328;SDS011;51941;52.210;5.158;2023-07-30T10:56:42;5.95;;;1.40;;
65328;SDS011;51941;52.210;5.158;2023-07-30T10:59:11;8.93;;;1.48;;
65328;SDS011;51941;52.210;5.158;2023-07-30T11:01:40;5.05;;;1.10;;
65328;SDS011;51941;52.210;5.158;2023-07-30T11:06:35;5.55;;;1.70;;
65328;SDS011;51941;52.210;5.158;2023-07-30T11:09:02;5.22;;;1.10;;
65328;SDS011;51941;52.210;5.158;2023-07-30T11:11:29;10.77;;;1.65;;
65328;SDS011;51941;52.210;5.158;2023-07-30T11:13:57;8.85;;;1.40;;
65328;SDS011;51941;52.210;5.158;2023-07-30T11:16:24;9.98;;;1.77;;
65328;SDS011;51941;52.210;5.158;2023-07-30T11:18:54;8.68;;;1.40;;
65328;SDS011;51941;52.210;5.158;2023-07-30T11:21:21;9.73;;;1.43;;
65328;SDS011;51941;52.210;5.158;2023-07-30T11:23:50;10.15;;;1.58;;
65328;SDS011;51941;52.210;5.158;2023-07-30T11:28:44;4.63;;;1.00;;
65328;SDS011;51941;52.210;5.158;2023-07-30T11:31:12;5.40;;;0.93;;
65328;SDS011;51941;52.210;5.158;2023-07-30T11:33:41;6.43;;;1.35;;
65328;SDS011;51941;52.210;5.158;2023-07-30T11:36:11;6.25;;;1.40;;
65328;SDS011;51941;52.210;5.158;2023-07-30T11:38:41;5.63;;;1.10;;
65328;SDS011;51941;52.210;5.158;2023-07-30T11:41:09;7.43;;;1.05;;
65328;SDS011;51941;52.210;5.158;2023-07-30T11:43:37;5.15;;;1.23;;
65328;SDS011;51941;52.210;5.158;2023-07-30T11:46:06;6.57;;;1.25;;
65328;SDS011;51941;52.210;5.158;2023-07-30T11:48:34;5.87;;;1.47;;
65328;SDS011;51941;52.210;5.158;2023-07-30T11:51:01;6.72;;;1.38;;
65328;SDS011;51941;52.210;5.158;2023-07-30T11:58:45;3.55;;;0.93;;
65328;SDS011;51941;52.210;5.158;2023-07-30T12:01:12;4.90;;;1.05;;
65328;SDS011;51941;52.210;5.158;2023-07-30T12:03:39;4.90;;;1.10;;
65328;SDS011;51941;52.210;5.158;2023-07-30T12:06:07;4.43;;;1.00;;
65328;SDS011;51941;52.210;5.158;2023-07-30T12:08:35;6.57;;;1.20;;
65328;SDS011;51941;52.210;5.158;2023-07-30T12:11:04;2.85;;;0.80;;
65328;SDS011;51941;52.210;5.158;2023-07-30T12:13:31;6.88;;;1.10;;
65328;SDS011;51941;52.210;5.158;2023-07-30T12:15:58;7.53;;;1.00;;
65328;SDS011;51941;52.210;5.158;2023-07-30T12:18:26;4.70;;;0.88;;
65328;SDS011;51941;52.210;5.158;2023-07-30T12:20:54;5.43;;;1.00;;
65328;SDS011;51941;52.210;5.158;2023-07-30T12:23:21;3.63;;;0.77;;
65328;SDS011;51941;52.210;5.158;2023-07-30T12:25:48;6.82;;;1.27;;
65328;SDS011;51941;52.210;5.158;2023-07-30T12:28:16;5.97;;;0.98;;
65328;SDS011;51941;52.210;5.158;2023-07-30T12:30:43;5.55;;;0.90;;
65328;SDS011;51941;52.210;5.158;2023-07-30T12:33:10;4.40;;;1.20;;
65328;SDS011;51941;52.210;5.158;2023-07-30T12:35:36;5.90;;;1.25;;
65328;SDS011;51941;52.210;5.158;2023-07-30T12:38:03;8.25;;;1.60;;
65328;SDS011;51941;52.210;5.158;2023-07-30T12:40:30;7.65;;;1.25;;
65328;SDS011;51941;52.210;5.158;2023-07-30T12:43:00;8.73;;;1.30;;
65328;SDS011;51941;52.210;5.158;2023-07-30T12:45:28;4.32;;;0.82;;
65328;SDS011;51941;52.210;5.158;2023-07-30T12:47:56;6.78;;;1.48;;
65328;SDS011;51941;52.210;5.158;2023-07-30T12:50:23;5.95;;;0.95;;
65328;SDS011;51941;52.210;5.158;2023-07-30T12:52:50;4.68;;;1.25;;
65328;SDS011;51941;52.210;5.158;2023-07-30T12:55:17;5.72;;;0.93;;
65328;SDS011;51941;52.210;5.158;2023-07-30T12:57:44;4.35;;;0.95;;
65328;SDS011;51941;52.210;5.158;2023-07-30T13:00:11;5.15;;;1.20;;
65328;SDS011;51941;52.210;5.158;2023-07-30T13:02:40;5.00;;;0.90;;
65328;SDS011;51941;52.210;5.158;2023-07-30T13:05:07;2.72;;;0.95;;
65328;SDS011;51941;52.210;5.158;2023-07-30T13:07:34;4.25;;;0.90;;
65328;SDS011;51941;52.210;5.158;2023-07-30T13:10:04;5.57;;;0.90;;
65328;SDS011;51941;52.210;5.158;2023-07-30T13:12:31;5.38;;;0.95;;
65328;SDS011;51941;52.210;5.158;2023-07-30T13:14:58;3.47;;;0.77;;
65328;SDS011;51941;52.210;5.158;2023-07-30T13:17:25;3.72;;;0.85;;
65328;SDS011;51941;52.210;5.158;2023-07-30T13:19:53;6.72;;;1.17;;
65328;SDS011;51941;52.210;5.158;2023-07-30T13:22:20;5.60;;;1.02;;
65328;SDS011;51941;52.210;5.158;2023-07-30T13:24:47;5.20;;;1.00;;
65328;SDS011;51941;52.210;5.158;2023-07-30T13:27:14;4.43;;;0.88;;
65328;SDS011;51941;52.210;5.158;2023-07-30T13:29:41;2.95;;;0.95;;
65328;SDS011;51941;52.210;5.158;2023-07-30T13:32:09;7.72;;;1.52;;
65328;SDS011;51941;52.210;5.158;2023-07-30T13:34:35;6.63;;;1.20;;
65328;SDS011;51941;52.210;5.158;2023-07-30T13:37:04;5.18;;;0.90;;
65328;SDS011;51941;52.210;5.158;2023-07-30T13:39:30;4.70;;;1.33;;
65328;SDS011;51941;52.210;5.158;2023-07-30T13:41:57;4.47;;;1.15;;
65328;SDS011;51941;52.210;5.158;2023-07-30T13:44:24;4.70;;;1.20;;
65328;SDS011;51941;52.210;5.158;2023-07-30T13:46:50;4.30;;;1.05;;
65328;SDS011;51941;52.210;5.158;2023-07-30T13:49:18;8.48;;;1.35;;
65328;SDS011;51941;52.210;5.158;2023-07-30T13:51:45;5.85;;;1.10;;
65328;SDS011;51941;52.210;5.158;2023-07-30T13:54:13;5.40;;;1.23;;
65328;SDS011;51941;52.210;5.158;2023-07-30T13:56:40;5.20;;;1.00;;
65328;SDS011;51941;52.210;5.158;2023-07-30T13:59:07;8.15;;;1.60;;
65328;SDS011;51941;52.210;5.158;2023-07-30T14:01:34;8.15;;;1.42;;
65328;SDS011;51941;52.210;5.158;2023-07-30T14:04:00;8.07;;;1.10;;
65328;SDS011;51941;52.210;5.158;2023-07-30T14:06:27;6.43;;;1.40;;
65328;SDS011;51941;52.210;5.158;2023-07-30T14:08:56;4.57;;;1.25;;
65328;SDS011;51941;52.210;5.158;2023-07-30T14:11:25;5.97;;;1.30;;
65328;SDS011;51941;52.210;5.158;2023-07-30T14:13:52;5.03;;;1.10;;
65328;SDS011;51941;52.210;5.158;2023-07-30T14:16:19;8.07;;;1.50;;
65328;SDS011;51941;52.210;5.158;2023-07-30T14:18:46;7.50;;;1.60;;
65328;SDS011;51941;52.210;5.158;2023-07-30T14:21:12;6.90;;;1.65;;
65328;SDS011;51941;52.210;5.158;2023-07-30T14:23:39;7.32;;;1.45;;
65328;SDS011;51941;52.210;5.158;2023-07-30T14:26:06;7.65;;;1.40;;
65328;SDS011;51941;52.210;5.158;2023-07-30T14:28:34;9.05;;;1.65;;
65328;SDS011;51941;52.210;5.158;2023-07-30T14:31:01;6.90;;;1.38;;
65328;SDS011;51941;52.210;5.158;2023-07-30T14:33:28;6.05;;;1.45;;
65328;SDS011;51941;52.210;5.158;2023-07-30T14:35:55;7.40;;;1.80;;
65328;SDS011;51941;52.210;5.158;2023-07-30T14:38:21;11.23;;;1.90;;
65328;SDS011;51941;52.210;5.158;2023-07-30T14:40:48;12.30;;;2.03;;
65328;SDS011;51941;52.210;5.158;2023-07-30T14:43:15;8.32;;;1.50;;
65328;SDS011;51941;52.210;5.158;2023-07-30T14:45:43;14.65;;;1.80;;
65328;SDS011;51941;52.210;5.158;2023-07-30T14:48:09;6.20;;;1.58;;
65328;SDS011;51941;52.210;5.158;2023-07-30T14:50:36;9.88;;;1.60;;
65328;SDS011;51941;52.210;5.158;2023-07-30T14:53:03;12.00;;;1.63;;
65328;SDS011;51941;52.210;5.158;2023-07-30T14:55:30;8.00;;;1.73;;